Time;durP1;ratioP1;P1;durP2;ratioP2;P2;SDS_P1;SDS_P2;PMS_P1;PMS_P2;Temp;Humidity;BMP_temperature;BMP_pressure;BME280_temperature;BME280_humidity;BME280_pressure;Samples;Min_cycle;Max_cycle;Signal;HPM_P1;HPM_P2
2023/05/22 00:02:05;;;;;;;31.38;20.05;;;;;;;15.58;100.00;101341.88;5076521;28;20475;-70
2023/05/22 00:04:30;;;;;;;32.20;20.23;;;;;;;15.51;100.00;101333.03;5079027;28;20079;-70
2023/05/22 00:06:56;;;;;;;30.88;20.30;;;;;;;15.44;100.00;101334.00;5080380;28;20135;-70
2023/05/22 00:09:23;;;;;;;29.73;19.60;;;;;;;15.48;100.00;101333.06;5077115;28;20084;-70
2023/05/22 00:11:50;;;;;;;30.90;20.63;;;;;;;15.49;100.00;101326.84;5077328;28;20025;-69
2023/05/22 00:14:15;;;;;;;31.33;19.95;;;;;;;15.45;100.00;101333.09;5095810;28;20177;-70
2023/05/22 00:16:40;;;;;;;32.25;20.67;;;;;;;15.60;100.00;101323.22;5098051;28;20045;-70
2023/05/22 00:19:11;;;;;;;30.70;20.27;;;;;;;15.67;100.00;101327.59;5101768;28;20039;-70
2023/05/22 00:21:37;;;;;;;31.63;20.90;;;;;;;15.57;100.00;101332.13;5101612;28;20027;-70
2023/05/22 00:24:03;;;;;;;30.77;20.40;;;;;;;15.47;100.00;101336.63;5097304;28;20040;-70
2023/05/22 00:26:28;;;;;;;30.15;20.60;;;;;;;15.39;100.00;101329.59;5101730;28;20042;-70
2023/05/22 00:28:54;;;;;;;31.75;20.52;;;;;;;15.31;100.00;101330.53;5099100;28;20024;-70
2023/05/22 00:31:19;;;;;;;31.63;21.10;;;;;;;15.24;100.00;101323.47;5059805;28;20032;-70
2023/05/22 00:33:45;;;;;;;31.30;21.45;;;;;;;15.22;100.00;101329.72;5080979;28;20599;-70
2023/05/22 00:36:10;;;;;;;34.28;21.88;;;;;;;15.15;100.00;101315.56;5082151;28;20032;-70
2023/05/22 00:38:36;;;;;;;31.13;21.58;;;;;;;15.18;100.00;101326.19;5082891;28;20040;-70
2023/05/22 00:41:05;;;;;;;32.03;22.08;;;;;;;15.22;100.00;101324.38;5083413;28;20056;-69
2023/05/22 00:43:31;;;;;;;32.60;22.33;;;;;;;15.20;100.00;101321.72;5078813;28;20041;-70
2023/05/22 00:45:56;;;;;;;32.00;22.50;;;;;;;15.22;100.00;101324.38;5079690;28;20028;-70
2023/05/22 00:48:22;;;;;;;31.77;21.20;;;;;;;15.15;100.00;101327.09;5080827;28;20361;-69
2023/05/22 00:50:49;;;;;;;32.55;22.48;;;;;;;15.05;100.00;101321.84;5082194;28;20079;-70
2023/05/22 00:53:14;;;;;;;31.80;22.05;;;;;;;15.02;100.00;101320.09;5080164;28;20039;-70
2023/05/22 00:55:41;;;;;;;33.53;23.48;;;;;;;14.96;100.00;101317.47;5079743;28;20402;-70
2023/05/22 00:58:12;;;;;;;33.50;23.35;;;;;;;14.94;100.00;101314.81;5081010;28;20115;-70
2023/05/22 01:00:40;;;;;;;32.78;23.85;;;;;;;14.85;100.00;101324.63;5079347;28;20489;-70
2023/05/22 01:03:08;;;;;;;33.97;23.35;;;;;;;14.83;100.00;101322.00;5076442;28;20382;-70
2023/05/22 01:05:34;;;;;;;32.53;24.15;;;;;;;14.82;100.00;101317.53;5077603;28;20032;-70
2023/05/22 01:08:00;;;;;;;33.53;23.83;;;;;;;14.77;100.00;101322.03;5081508;28;20117;-70
2023/05/22 01:10:26;;;;;;;33.60;24.60;;;;;;;14.68;100.00;101317.63;5081634;28;20586;-69
2023/05/22 01:12:58;;;;;;;34.50;24.50;;;;;;;14.64;100.00;101314.09;5079322;28;20036;-69
2023/05/22 01:15:51;;;;;;;36.15;24.98;;;;;;;14.65;100.00;101317.66;5079241;28;20087;-70
2023/05/22 01:18:28;;;;;;;33.13;24.13;;;;;;;14.59;100.00;101315.88;5080388;28;20055;-69
2023/05/22 01:21:03;;;;;;;33.97;24.23;;;;;;;14.60;100.00;101312.31;5080260;28;20021;-70
2023/05/22 01:23:53;;;;;;;34.38;25.02;;;;;;;14.59;100.00;101318.53;5080276;28;20377;-70
2023/05/22 01:26:26;;;;;;;33.65;24.73;;;;;;;14.51;100.00;101322.13;5080062;28;20021;-70
2023/05/22 01:29:19;;;;;;;35.33;25.45;;;;;;;14.36;100.00;101315.97;5075288;28;20028;-69
2023/05/22 01:31:47;;;;;;;36.88;26.08;;;;;;;14.33;100.00;101312.41;5077040;28;20039;-70
2023/05/22 01:34:15;;;;;;;34.95;25.63;;;;;;;14.32;100.00;101313.34;5077341;28;20459;-69
2023/05/22 01:36:44;;;;;;;34.17;26.40;;;;;;;14.20;100.00;101311.56;5079526;28;20032;-70
2023/05/22 01:39:11;;;;;;;34.33;26.38;;;;;;;14.11;100.00;101310.72;5079690;28;20036;-70
2023/05/22 01:41:36;;;;;;;34.03;25.70;;;;;;;14.12;100.00;101309.84;5072187;28;20021;-70
2023/05/22 01:44:01;;;;;;;35.35;26.60;;;;;;;14.06;100.00;101315.16;5074447;28;20025;-69
2023/05/22 01:46:29;;;;;;;36.83;26.45;;;;;;;13.99;100.00;101318.72;5079978;28;20097;-70
2023/05/22 01:48:54;;;;;;;35.15;26.35;;;;;;;13.95;100.00;101323.19;5079207;28;20062;-69
2023/05/22 01:51:48;;;;;;;35.03;26.25;;;;;;;14.01;100.00;101324.03;5078691;28;20024;-70
2023/05/22 01:54:34;;;;;;;34.95;26.27;;;;;;;13.98;100.00;101318.72;5075377;28;20032;-70
2023/05/22 01:57:17;;;;;;;35.22;26.20;;;;;;;13.90;100.00;101318.75;5079627;28;20044;-70
2023/05/22 01:59:48;;;;;;;37.05;26.90;;;;;;;13.86;100.00;101307.25;5079199;28;20028;-70
2023/05/22 02:02:18;;;;;;;33.05;25.27;;;;;;;13.91;100.00;101312.56;5078188;28;20055;-69
2023/05/22 02:04:54;;;;;;;36.03;26.65;;;;;;;13.78;100.00;101311.69;5079253;28;20054;-70
2023/05/22 02:07:23;;;;;;;35.20;26.85;;;;;;;13.71;100.00;101312.59;5078111;28;20066;-70
2023/05/22 02:09:50;;;;;;;35.92;26.50;;;;;;;13.76;100.00;101310.78;5076264;28;20372;-70
2023/05/22 02:12:16;;;;;;;35.42;27.17;;;;;;;13.67;100.00;101313.47;5077272;28;20032;-70
2023/05/22 02:14:42;;;;;;;35.22;27.05;;;;;;;13.69;100.00;101311.69;5076865;28;20044;-69
2023/05/22 02:17:07;;;;;;;35.78;26.48;;;;;;;13.66;100.00;101309.03;5080694;28;20043;-70
2023/05/22 02:19:36;;;;;;;36.72;27.75;;;;;;;13.63;100.00;101314.34;5080149;28;20135;-70
2023/05/22 02:22:02;;;;;;;35.38;27.55;;;;;;;13.70;100.00;101313.47;5080789;28;20119;-70
2023/05/22 02:24:29;;;;;;;35.17;26.48;;;;;;;13.76;100.00;101314.34;5073842;28;20035;-70
2023/05/22 02:26:55;;;;;;;35.08;27.00;;;;;;;13.63;100.00;101307.28;5076942;28;20016;-69
2023/05/22 02:29:20;;;;;;;36.28;27.30;;;;;;;13.56;100.00;101306.41;5078014;28;20040;-70
2023/05/22 02:31:45;;;;;;;34.88;26.83;;;;;;;13.60;100.00;101301.94;5081258;28;20065;-70
2023/05/22 02:34:11;;;;;;;38.00;27.73;;;;;;;13.63;100.00;101295.75;5074633;28;20036;-70
2023/05/22 02:36:36;;;;;;;37.50;28.55;;;;;;;13.63;100.00;101290.44;5076882;28;20506;-70
2023/05/22 02:39:02;;;;;;;37.17;28.42;;;;;;;13.63;100.00;101303.72;5078415;28;20446;-70
2023/05/22 02:41:27;;;;;;;38.70;28.85;;;;;;;13.56;100.00;101295.78;5077627;28;20027;-70
2023/05/22 02:43:52;;;;;;;34.85;27.05;;;;;;;13.68;100.00;101299.31;5076045;28;20028;-70
2023/05/22 02:46:18;;;;;;;36.35;27.92;;;;;;;13.60;100.00;101289.56;5078248;28;20061;-70
2023/05/22 02:48:44;;;;;;;36.63;27.70;;;;;;;13.75;100.00;101295.75;5078377;28;20020;-69
2023/05/22 02:51:09;;;;;;;35.03;27.83;;;;;;;13.81;100.00;101294.88;5077347;28;20395;-69
2023/05/22 02:53:38;;;;;;;36.05;27.40;;;;;;;13.84;100.00;101295.72;5076866;28;20025;-70
2023/05/22 02:56:09;;;;;;;36.78;28.05;;;;;;;13.85;100.00;101289.53;5077385;28;20135;-69
2023/05/22 02:58:35;;;;;;;37.88;29.13;;;;;;;13.73;100.00;101290.44;5079401;28;20044;-70
2023/05/22 03:01:02;;;;;;;36.83;28.15;;;;;;;13.76;100.00;101297.50;5078185;28;20213;-70
2023/05/22 03:03:28;;;;;;;36.83;28.67;;;;;;;13.57;100.00;101292.25;5080715;28;20024;-70
2023/05/22 03:05:57;;;;;;;36.50;28.02;;;;;;;13.59;100.00;101292.25;5074867;28;20032;-70
2023/05/22 03:08:22;;;;;;;36.55;28.08;;;;;;;13.57;100.00;101291.34;5080057;28;20031;-69
2023/05/22 03:10:48;;;;;;;37.83;28.10;;;;;;;13.48;100.00;101292.22;5077714;28;20035;-70
2023/05/22 03:13:13;;;;;;;38.13;29.40;;;;;;;13.35;100.00;101288.72;5074280;28;20467;-70
2023/05/22 03:15:38;;;;;;;36.88;28.88;;;;;;;13.29;100.00;101291.31;5077990;28;20029;-70
2023/05/22 03:18:04;;;;;;;38.53;29.52;;;;;;;13.24;100.00;101285.13;5078328;28;20025;-69
2023/05/22 03:20:30;;;;;;;36.83;29.30;;;;;;;13.22;100.00;101279.81;5077672;28;20482;-69
2023/05/22 03:22:56;;;;;;;37.28;29.67;;;;;;;13.11;100.00;101281.59;5074876;28;20383;-70
2023/05/22 03:25:22;;;;;;;38.63;29.90;;;;;;;13.15;100.00;101287.75;5079575;28;20056;-70
2023/05/22 03:27:47;;;;;;;38.90;29.85;;;;;;;13.02;100.00;101279.81;5079760;28;20025;-70
2023/05/22 03:30:13;;;;;;;38.92;30.42;;;;;;;13.02;100.00;101284.25;5078072;28;20028;-70
2023/05/22 03:32:39;;;;;;;39.22;31.27;;;;;;;12.90;100.00;101275.38;5077662;28;20037;-70
2023/05/22 03:35:05;;;;;;;40.15;32.00;;;;;;;12.79;100.00;101284.19;5076987;28;20032;-70
2023/05/22 03:37:30;;;;;;;40.72;31.83;;;;;;;12.74;100.00;101281.50;5077379;28;20033;-70
2023/05/22 03:39:56;;;;;;;41.25;31.48;;;;;;;12.77;100.00;101281.53;5078827;28;20024;-70
2023/05/22 03:42:21;;;;;;;40.00;31.73;;;;;;;12.85;100.00;101285.06;5075361;28;20422;-69
2023/05/22 03:44:48;;;;;;;40.30;31.63;;;;;;;12.94;100.00;101278.03;5077317;28;20421;-70
2023/05/22 03:47:13;;;;;;;39.78;30.65;;;;;;;13.00;100.00;101292.16;5077089;28;20036;-70
2023/05/22 03:49:38;;;;;;;40.03;30.60;;;;;;;12.99;100.00;101294.81;5076355;28;20078;-70
2023/05/22 03:52:04;;;;;;;41.83;31.92;;;;;;;12.93;100.00;101294.81;5075597;28;20055;-69
2023/05/22 03:54:30;;;;;;;40.30;30.95;;;;;;;12.95;100.00;101285.09;5075372;28;20484;-70
2023/05/22 03:56:55;;;;;;;40.13;30.70;;;;;;;12.95;100.00;101283.34;5076353;28;20101;-70
2023/05/22 03:59:21;;;;;;;39.85;30.50;;;;;;;12.94;100.00;101273.59;5076768;28;20441;-70
2023/05/22 04:01:47;;;;;;;37.85;30.05;;;;;;;13.00;100.00;101278.03;5076650;28;20033;-70
2023/05/22 04:04:13;;;;;;;39.70;30.25;;;;;;;13.00;100.00;101272.72;5076500;28;20029;-70
2023/05/22 04:06:41;;;;;;;40.42;30.83;;;;;;;12.93;100.00;101281.56;5077658;28;20032;-70
2023/05/22 04:09:11;;;;;;;39.50;30.90;;;;;;;12.81;100.00;101271.81;5080384;28;20035;-70
2023/05/22 04:11:40;;;;;;;40.05;31.27;;;;;;;12.75;100.00;101270.03;5079831;28;20475;-70
2023/05/22 04:14:06;;;;;;;40.67;30.98;;;;;;;12.79;100.00;101274.47;5079841;28;20033;-70
2023/05/22 04:16:32;;;;;;;40.47;30.73;;;;;;;12.68;100.00;101277.09;5079445;28;20040;-70
2023/05/22 04:19:00;;;;;;;42.78;30.98;;;;;;;12.68;100.00;101277.09;5079476;28;20114;-70
2023/05/22 04:21:26;;;;;;;39.97;30.98;;;;;;;12.62;100.00;101279.72;5081519;28;20358;-70
2023/05/22 04:23:51;;;;;;;41.20;31.77;;;;;;;12.50;100.00;101279.69;5079667;28;20037;-70
2023/05/22 04:26:19;;;;;;;42.03;31.90;;;;;;;12.57;100.00;101278.81;5080852;28;20036;-70
2023/05/22 04:28:45;;;;;;;40.53;31.60;;;;;;;12.52;100.00;101286.78;5081127;28;20117;-67
2023/05/22 04:31:13;;;;;;;40.22;31.13;;;;;;;12.60;100.00;101286.78;5077370;28;20131;-66
2023/05/22 04:33:39;;;;;;;42.58;30.83;;;;;;;12.61;100.00;101295.63;5081529;28;20032;-67
2023/05/22 04:36:05;;;;;;;40.67;31.17;;;;;;;12.75;100.00;101301.84;5079454;28;20047;-66
2023/05/22 04:38:35;;;;;;;39.97;30.48;;;;;;;12.80;100.00;101301.88;5080186;28;20034;-67
2023/05/22 04:41:04;;;;;;;38.17;29.23;;;;;;;12.98;100.00;101309.00;5075862;28;20085;-66
2023/05/22 04:43:31;;;;;;;38.85;29.85;;;;;;;13.11;100.00;101301.94;5077164;28;20024;-67
2023/05/22 04:45:56;;;;;;;38.10;28.65;;;;;;;13.18;100.00;101309.91;5082987;28;20075;-67
2023/05/22 04:48:21;;;;;;;38.00;29.20;;;;;;;13.35;100.00;101314.38;5077964;28;20475;-70
2023/05/22 04:50:50;;;;;;;37.88;29.75;;;;;;;13.34;100.00;101312.56;5079272;28;20475;-66
2023/05/22 04:53:16;;;;;;;36.85;28.13;;;;;;;13.47;100.00;101314.38;5072514;28;20542;-67
2023/05/22 04:55:42;;;;;;;38.97;28.83;;;;;;;13.36;100.00;101309.06;5079675;28;20202;-67
2023/05/22 04:58:07;;;;;;;38.42;29.60;;;;;;;13.31;100.00;101318.78;5059697;28;20039;-67
2023/05/22 05:00:32;;;;;;;39.42;29.90;;;;;;;13.31;100.00;101312.56;5077439;28;20032;-68
2023/05/22 05:02:59;;;;;;;39.97;30.83;;;;;;;13.29;100.00;101312.56;5080421;28;20031;-68
2023/05/22 05:05:24;;;;;;;41.58;30.88;;;;;;;13.22;100.00;101317.00;5079189;28;20082;-66
2023/05/22 05:07:50;;;;;;;42.83;31.13;;;;;;;13.31;100.00;101317.88;5082116;28;20040;-68
2023/05/22 05:10:16;;;;;;;42.40;32.55;;;;;;;13.21;100.00;101322.31;5079493;28;20395;-70
2023/05/22 05:12:42;;;;;;;41.35;32.08;;;;;;;13.25;100.00;101321.41;5078166;28;20073;-66
2023/05/22 05:15:08;;;;;;;41.75;32.47;;;;;;;13.22;100.00;101326.69;5078300;28;20028;-66
2023/05/22 05:17:33;;;;;;;43.47;32.97;;;;;;;13.34;100.00;101326.75;5081099;28;20466;-68
2023/05/22 05:19:59;;;;;;;42.80;33.30;;;;;;;13.39;100.00;101324.97;5078005;28;20033;-66
2023/05/22 05:22:24;;;;;;;41.92;32.70;;;;;;;13.40;100.00;101329.41;5078705;28;20028;-67
2023/05/22 05:24:50;;;;;;;43.00;32.80;;;;;;;13.50;100.00;101329.41;5078784;28;20047;-66
2023/05/22 05:27:15;;;;;;;43.50;32.72;;;;;;;13.51;100.00;101334.72;5077857;28;20050;-73
2023/05/22 05:29:41;;;;;;;44.13;32.85;;;;;;;13.49;100.00;101333.84;5082336;28;20057;-74
2023/05/22 05:32:07;;;;;;;41.47;32.80;;;;;;;13.49;100.00;101330.31;5077277;28;20517;-69
2023/05/22 05:34:32;;;;;;;42.78;33.38;;;;;;;13.39;100.00;101329.41;5080782;28;20078;-70
2023/05/22 05:36:58;;;;;;;41.30;32.80;;;;;;;13.47;100.00;101330.31;5077510;28;20562;-71
2023/05/22 05:39:23;;;;;;;44.25;32.50;;;;;;;13.54;100.00;101329.44;5081990;28;20135;-69
2023/05/22 05:41:49;;;;;;;42.58;33.40;;;;;;;13.62;100.00;101325.88;5081460;28;20429;-69
2023/05/22 05:44:14;;;;;;;45.72;33.58;;;;;;;13.66;100.00;101325.88;5076165;28;20055;-69
2023/05/22 05:46:40;;;;;;;43.22;32.75;;;;;;;13.71;100.00;101326.75;5078214;28;20533;-70
2023/05/22 05:49:09;;;;;;;42.47;32.28;;;;;;;13.78;100.00;101327.63;5078262;28;20042;-70
2023/05/22 05:51:38;;;;;;;42.05;31.77;;;;;;;13.92;100.00;101320.53;5078521;28;20036;-69
2023/05/22 05:54:04;;;;;;;41.03;31.10;;;;;;;14.02;100.00;101323.16;5075804;28;20541;-69
2023/05/22 05:56:29;;;;;;;42.65;32.15;;;;;;;13.96;100.00;101324.06;5079277;28;20048;-70
2023/05/22 05:58:55;;;;;;;43.50;32.15;;;;;;;13.91;100.00;101333.81;5080167;28;20040;-70
2023/05/22 06:01:23;;;;;;;41.58;31.92;;;;;;;14.00;100.00;101332.91;5080791;28;20031;-69
2023/05/22 06:03:49;;;;;;;43.00;31.23;;;;;;;14.12;100.00;101332.88;5076994;28;20028;-69
2023/05/22 06:06:16;;;;;;;41.40;31.13;;;;;;;14.22;100.00;101339.94;5080227;28;20494;-70
2023/05/22 06:08:42;;;;;;;40.20;30.27;;;;;;;14.27;100.00;101339.91;5078418;28;20035;-70
2023/05/22 06:11:07;;;;;;;41.25;30.95;;;;;;;14.31;100.00;101344.34;5079405;28;20032;-70
2023/05/22 06:13:32;;;;;;;43.75;32.25;;;;;;;14.53;100.00;101347.81;5078798;28;20482;-69
2023/05/22 06:15:58;;;;;;;39.05;30.63;;;;;;;14.50;100.00;101339.84;5077178;28;20076;-69
2023/05/22 06:18:24;;;;;;;44.00;31.42;;;;;;;14.53;100.00;101339.81;5077081;28;20036;-69
2023/05/22 06:20:50;;;;;;;41.35;30.30;;;;;;;14.66;100.00;101347.78;5077747;28;20103;-69
2023/05/22 06:23:16;;;;;;;41.08;30.65;;;;;;;14.79;100.00;101349.50;5077419;28;20067;-69
2023/05/22 06:25:42;;;;;;;42.45;29.85;;;;;;;15.02;100.00;101348.50;5077652;28;20052;-71
2023/05/22 06:28:07;;;;;;;41.83;30.38;;;;;;;15.13;100.00;101350.19;5077782;28;20043;-69
2023/05/22 06:30:34;;;;;;;42.15;31.30;;;;;;;15.26;100.00;101350.09;5079297;28;20440;-70
2023/05/22 06:32:59;;;;;;;44.72;31.95;;;;;;;15.27;100.00;101349.22;5080720;28;20035;-70
2023/05/22 06:35:25;;;;;;;45.80;31.83;;;;;;;15.25;100.00;101357.22;5076966;28;20029;-70
2023/05/22 06:37:51;;;;;;;42.78;30.58;;;;;;;15.44;100.00;101352.63;5077251;28;20063;-70
2023/05/22 06:40:16;;;;;;;45.65;31.35;;;;;;;15.52;100.00;101350.81;5071579;28;20086;-69
2023/05/22 06:42:42;;;;;;;44.08;31.17;;;;;;;15.53;100.00;101354.34;5070017;28;20056;-69
2023/05/22 06:45:08;;;;;;;43.28;30.60;;;;;;;15.48;100.00;101356.19;5078814;28;20027;-72
2023/05/22 06:47:33;;;;;;;44.08;33.15;;;;;;;15.27;100.00;101360.75;5074689;28;20115;-69
2023/05/22 06:49:59;;;;;;;46.20;34.05;;;;;;;15.16;100.00;101362.63;5073955;28;20066;-70
2023/05/22 06:52:24;;;;;;;44.97;34.05;;;;;;;15.05;100.00;101365.31;5077270;28;20044;-70
2023/05/22 06:54:49;;;;;;;43.22;33.05;;;;;;;15.21;100.00;101357.25;5080863;28;20489;-69
2023/05/22 06:57:15;;;;;;;44.67;34.28;;;;;;;15.21;100.00;101363.47;5077756;28;20069;-69
2023/05/22 06:59:40;;;;;;;50.40;36.20;;;;;;;15.16;100.00;101378.59;5077684;28;20037;-67
2023/05/22 07:02:06;;;;;;;43.50;34.90;;;;;;;15.24;100.00;101376.75;5077090;28;20051;-67
2023/05/22 07:04:31;;;;;;;44.85;35.35;;;;;;;15.33;100.00;101376.72;5078896;28;20081;-68
2023/05/22 07:06:57;;;;;;;43.63;34.65;;;;;;;15.43;100.00;101387.28;5079445;28;20487;-68
2023/05/22 07:09:22;;;;;;;43.17;33.88;;;;;;;15.54;100.00;101374.78;5076572;28;20054;-70
2023/05/22 07:11:47;;;;;;;44.65;35.08;;;;;;;15.69;100.00;101384.41;5075781;28;20032;-68
2023/05/22 07:14:13;;;;;;;45.22;36.28;;;;;;;15.77;100.00;101384.34;5074509;28;20024;-68
2023/05/22 07:16:39;;;;;;;46.30;36.83;;;;;;;15.75;100.00;101389.69;5073473;28;20047;-71
2023/05/22 07:19:05;;;;;;;46.88;36.25;;;;;;;15.75;100.00;101391.47;5078133;28;20371;-68
2023/05/22 07:21:31;;;;;;;49.20;37.50;;;;;;;15.77;100.00;101387.91;5079919;28;20028;-69
2023/05/22 07:23:56;;;;;;;50.53;36.08;;;;;;;15.89;100.00;101389.63;5073168;28;20540;-78
2023/05/22 07:26:22;;;;;;;47.30;35.03;;;;;;;15.97;100.00;101387.75;5076663;28;20119;-70
2023/05/22 07:28:48;;;;;;;47.33;36.42;;;;;;;15.96;100.00;101393.09;5075478;28;20028;-71
2023/05/22 07:31:13;;;;;;;49.35;36.78;;;;;;;16.10;100.00;101400.97;5074464;28;20542;-71
2023/05/22 07:33:39;;;;;;;49.15;37.58;;;;;;;16.04;100.00;101393.91;5077536;28;20368;-71
2023/05/22 07:36:05;;;;;;;46.28;35.88;;;;;;;16.20;100.00;101394.66;5077876;28;20037;-70
2023/05/22 07:38:30;;;;;;;51.85;39.30;;;;;;;16.18;100.00;101391.13;5079648;28;20036;-70
2023/05/22 07:40:55;;;;;;;48.70;37.28;;;;;;;16.44;100.00;101395.28;5060790;28;20033;-70
2023/05/22 07:43:21;;;;;;;47.60;38.15;;;;;;;16.72;100.00;101390.50;5083558;28;20028;-71
2023/05/22 07:45:46;;;;;;;48.33;37.72;;;;;;;16.75;100.00;101393.13;5066398;28;20025;-71
2023/05/22 07:48:12;;;;;;;46.45;36.20;;;;;;;16.83;100.00;101398.38;5086220;28;20024;-70
2023/05/22 07:50:37;;;;;;;47.47;37.42;;;;;;;16.80;100.00;101398.41;5084996;28;20028;-69
2023/05/22 07:53:03;;;;;;;45.65;36.17;;;;;;;16.94;100.00;101401.81;5082236;28;20040;-70
2023/05/22 07:55:29;;;;;;;47.80;35.83;;;;;;;16.86;100.00;101401.91;5081348;28;20068;-70
2023/05/22 07:57:55;;;;;;;46.03;36.67;;;;;;;16.82;100.00;101402.84;5083576;28;20040;-69
2023/05/22 08:00:20;;;;;;;44.80;35.72;;;;;;;16.91;100.00;101407.22;5083386;28;20422;-70
2023/05/22 08:02:46;;;;;;;46.08;37.05;;;;;;;17.15;100.00;101400.63;5085203;28;20056;-70
2023/05/22 08:05:11;;;;;;;45.70;35.88;;;;;;;17.27;100.00;101410.28;5085185;28;20094;-71
2023/05/22 08:07:36;;;;;;;46.45;36.47;;;;;;;17.21;100.00;101405.91;5081650;28;20499;-70
2023/05/22 08:10:06;;;;;;;46.92;37.13;;;;;;;17.21;100.00;101408.56;5082872;28;20115;-71
2023/05/22 08:12:31;;;;;;;48.92;38.75;;;;;;;17.08;100.00;101405.19;5083222;28;20028;-70
2023/05/22 08:14:57;;;;;;;49.13;37.95;;;;;;;17.19;100.00;101402.34;5082602;28;20120;-71
2023/05/22 08:17:22;;;;;;;47.58;37.72;;;;;;;17.41;100.00;101407.38;5081860;28;20090;-76
2023/05/22 08:19:47;;;;;;;47.63;39.20;;;;;;;17.48;100.00;101398.38;5085328;28;20055;-71
2023/05/22 08:22:13;;;;;;;51.05;40.35;;;;;;;17.45;100.00;101397.56;5082965;28;20048;-78
2023/05/22 08:24:38;;;;;;;47.47;38.80;;;;;;;17.41;100.00;101394.03;5088156;28;20050;-79
2023/05/22 08:27:04;;;;;;;48.45;38.70;;;;;;;17.62;100.00;101394.59;5085604;28;20039;-69
2023/05/22 08:29:29;;;;;;;49.10;38.83;;;;;;;17.81;100.00;101395.16;5085916;28;20029;-69
2023/05/22 08:31:56;;;;;;;49.92;39.97;;;;;;;18.00;100.00;101401.09;5084483;28;20036;-69
2023/05/22 08:34:22;;;;;;;50.13;38.58;;;;;;;18.32;100.00;101396.97;5077322;28;20036;-68
2023/05/22 08:36:48;;;;;;;48.97;39.05;;;;;;;18.66;100.00;101394.50;5083358;28;20119;-72
2023/05/22 08:39:14;;;;;;;48.13;38.95;;;;;;;18.94;100.00;101399.31;5082395;28;20123;-73
2023/05/22 08:41:42;;;;;;;50.90;39.67;;;;;;;19.09;100.00;101390.94;5080874;28;20031;-69
2023/05/22 08:44:07;;;;;;;50.03;39.95;;;;;;;19.33;100.00;101393.97;5085299;28;20024;-70
2023/05/22 08:46:36;;;;;;;51.00;39.72;;;;;;;19.45;100.00;101398.16;5083227;28;20391;-72
2023/05/22 08:49:04;;;;;;;50.17;39.72;;;;;;;19.23;100.00;101397.78;5081920;28;20033;-77
2023/05/22 08:51:33;;;;;;;53.95;40.67;;;;;;;19.33;100.00;101393.97;5081675;28;20099;-73
2023/05/22 08:54:00;;;;;;;52.80;41.53;;;;;;;19.28;100.00;101395.84;5077654;28;20048;-70
2023/05/22 08:56:26;;;;;;;55.38;42.75;;;;;;;19.33;100.00;101399.31;5078693;28;20055;-71
2023/05/22 08:58:52;;;;;;;58.33;42.25;;;;;;;19.29;100.00;101398.50;5081977;28;20502;-70
2023/05/22 09:01:18;;;;;;;58.47;42.08;;;;;;;19.38;100.00;101399.22;5081218;28;20032;-68
2023/05/22 09:03:45;;;;;;;58.85;42.45;;;;;;;19.52;100.00;101397.97;5082774;28;20449;-69
2023/05/22 09:06:11;;;;;;;59.58;42.53;;;;;;;19.71;100.00;101391.28;5078942;28;20044;-70
2023/05/22 09:08:37;;;;;;;55.53;41.03;;;;;;;19.49;100.00;101394.47;5077452;28;20418;-69
2023/05/22 09:11:03;;;;;;;55.08;40.65;;;;;;;19.52;100.00;101397.97;5077481;28;20024;-68
2023/05/22 09:13:30;;;;;;;52.85;39.92;;;;;;;19.66;100.00;101402.13;5079383;28;20032;-69
2023/05/22 09:16:08;;;;;;;56.17;40.33;;;;;;;19.12;100.00;101401.59;5081166;28;20036;-69
2023/05/22 09:18:36;;;;;;;53.30;39.22;;;;;;;19.20;100.00;101403.22;5079247;28;20421;-69
2023/05/22 09:21:02;;;;;;;52.63;39.20;;;;;;;19.59;100.00;101405.88;5075122;28;20028;-69
2023/05/22 09:23:28;;;;;;;50.50;38.45;;;;;;;19.82;100.00;101398.16;5079349;28;20116;-70
2023/05/22 09:25:55;;;;;;;50.65;37.40;;;;;;;19.94;100.00;101405.00;5078929;28;20079;-69
2023/05/22 09:28:21;;;;;;;49.85;36.70;;;;;;;19.62;100.00;101398.63;5078024;28;20016;-70
2023/05/22 09:30:49;;;;;;;50.20;37.92;;;;;;;19.70;100.00;101403.78;5081991;28;20064;-70
2023/05/22 09:33:15;;;;;;;51.33;36.72;;;;;;;19.73;100.00;101392.09;5075974;28;20115;-69
2023/05/22 09:35:42;;;;;;;49.15;35.67;;;;;;;19.84;100.00;101395.44;5078789;28;20418;-70
2023/05/22 09:38:08;;;;;;;49.15;35.95;;;;;;;20.27;100.00;101402.38;5076535;28;20028;-70
2023/05/22 09:40:36;;;;;;;49.42;36.80;;;;;;;20.69;100.00;101390.47;5079150;28;20029;-70
2023/05/22 09:43:08;;;;;;;46.78;35.42;;;;;;;20.62;100.00;101395.13;5080526;28;20032;-69
2023/05/22 09:45:37;;;;;;;;;;;;;;;21.03;100.00;101397.53;5079143;28;20658;-70
2023/05/22 09:48:07;;;;;;;44.50;34.00;;;;;;;21.11;100.00;101383.84;5080545;28;20384;-70
2023/05/22 09:50:32;;;;;;;44.97;34.75;;;;;;;21.13;100.00;101390.03;5079521;28;20028;-70
2023/05/22 09:53:03;;;;;;;44.33;33.97;;;;;;;20.51;100.00;101379.31;5074439;28;20032;-70
2023/05/22 09:55:30;;;;;;;45.28;33.10;;;;;;;20.90;100.00;101381.78;5076861;28;20075;-70
2023/05/22 09:57:57;;;;;;;42.30;32.25;;;;;;;21.75;100.00;101383.59;5080397;28;20027;-70
2023/05/22 10:00:24;;;;;;;43.92;33.33;;;;;;;21.64;100.00;101373.22;5077180;28;20025;-71
2023/05/22 10:02:57;;;;;;;47.53;34.53;;;;;;;22.39;100.00;101376.91;5081165;28;20602;-70
2023/05/22 10:05:28;;;;;;;43.58;32.63;;;;;;;23.03;100.00;101372.69;5079027;28;20070;-71
2023/05/22 10:07:56;;;;;;;39.47;31.13;;;;;;;23.30;100.00;101385.09;5060375;28;20486;-71
2023/05/22 10:10:23;;;;;;;39.90;29.88;;;;;;;23.95;100.00;101387.81;5079318;28;20270;-71
2023/05/22 10:12:49;;;;;;;39.63;29.55;;;;;;;23.37;100.00;101390.25;5078002;28;20081;-71
2023/05/22 10:15:16;;;;;;;41.70;30.60;;;;;;;22.90;100.00;101383.09;5077719;28;20036;-71
2023/05/22 10:17:43;;;;;;;41.35;30.90;;;;;;;23.01;100.00;101385.34;5077807;28;20025;-70
2023/05/22 10:20:09;;;;;;;40.10;29.77;;;;;;;24.61;92.46;101380.47;5077691;28;20029;-70
2023/05/22 10:22:36;;;;;;;39.13;29.20;;;;;;;25.34;80.16;101377.94;5076403;28;20426;-70
2023/05/22 10:25:02;;;;;;;39.70;29.30;;;;;;;25.27;82.86;101377.31;5077053;28;20020;-71
2023/05/22 10:27:28;;;;;;;38.20;28.45;;;;;;;26.37;73.79;101372.69;5082624;28;20090;-70
2023/05/22 10:30:18;;;;;;;37.22;27.95;;;;;;;26.79;68.14;101376.72;5080306;28;20028;-71
2023/05/22 10:32:56;;;;;;;39.03;28.55;;;;;;;26.57;69.20;101378.84;5078808;28;20032;-70
2023/05/22 10:35:25;;;;;;;36.15;26.83;;;;;;;26.86;66.00;101382.66;5075537;28;20039;-70
2023/05/22 10:38:17;;;;;;;36.75;27.15;;;;;;;27.31;64.40;101385.59;5077404;28;20036;-70
2023/05/22 10:40:45;;;;;;;38.03;28.48;;;;;;;26.84;62.57;101372.88;5076353;28;20055;-69
2023/05/22 10:43:10;;;;;;;36.90;26.67;;;;;;;26.96;62.34;101370.34;5079567;28;20032;-69
2023/05/22 10:45:36;;;;;;;36.17;26.33;;;;;;;28.23;58.24;101372.97;5079405;28;20820;-69
2023/05/22 10:48:06;;;;;;;35.47;26.40;;;;;;;28.87;54.77;101374.34;5078723;28;20021;-71
2023/05/22 10:50:33;;;;;;;37.42;25.50;;;;;;;28.13;57.02;101365.34;5078931;28;20430;-69
2023/05/22 10:53:24;;;;;;;34.35;25.67;;;;;;;27.96;60.78;101368.19;5079182;28;20035;-69
2023/05/22 10:55:52;;;;;;;34.08;25.98;;;;;;;29.25;52.56;101366.53;5075483;28;20044;-69
2023/05/22 10:58:30;;;;;;;34.20;25.77;;;;;;;29.18;53.93;101366.00;5074529;28;20020;-68
2023/05/22 11:01:09;;;;;;;34.97;24.58;;;;;;;29.92;53.64;101360.22;5075767;28;20030;-69
2023/05/22 11:03:57;;;;;;;35.17;24.63;;;;;;;29.66;52.92;101366.44;5068591;28;20031;-71